Time;durP1;ratioP1;P1;durP2;ratioP2;P2;SDS_P1;SDS_P2;PMS_P1;PMS_P2;Temp;Humidity;BMP_temperature;BMP_pressure;BME280_temperature;BME280_humidity;BME280_pressure;Samples;Min_cycle;Max_cycle;Signal;HPM_P1;HPM_P2
2023/06/28 00:01:09;;;;;;;7.50;2.20;;;;;;;13.65;99.59;101419.66;4991691;28;20180;-45
2023/06/28 00:03:34;;;;;;;6.47;2.47;;;;;;;13.65;99.97;101414.28;4998157;28;20613;-45
2023/06/28 00:06:00;;;;;;;7.90;2.53;;;;;;;13.57;100.00;101411.88;4990084;28;20623;-43
2023/06/28 00:08:25;;;;;;;5.78;2.17;;;;;;;13.73;100.00;101416.63;4991010;28;20599;-46
2023/06/28 00:10:51;;;;;;;7.80;2.33;;;;;;;13.61;100.00;101426.09;4991641;28;20178;-46
2023/06/28 00:13:19;;;;;;;7.80;2.40;;;;;;;13.51;100.00;101419.34;4993179;28;20702;-45
2023/06/28 00:15:45;;;;;;;6.60;2.38;;;;;;;13.50;100.00;101417.59;4997235;28;20679;-46
2023/06/28 00:18:11;;;;;;;9.50;3.15;;;;;;;13.44;100.00;101421.41;4993531;28;20216;-46
2023/06/28 00:20:37;;;;;;;8.70;2.47;;;;;;;13.47;100.00;101418.59;4991522;28;20212;-43
2023/06/28 00:23:03;;;;;;;7.18;2.53;;;;;;;13.42;100.00;101423.28;4992946;28;20196;-46
2023/06/28 00:25:28;;;;;;;5.35;2.40;;;;;;;13.46;100.00;101418.66;4996080;28;20666;-45
2023/06/28 00:27:54;;;;;;;8.25;2.22;;;;;;;13.46;100.00;101429.41;4991348;28;20181;-46
2023/06/28 00:30:19;;;;;;;9.95;2.22;;;;;;;13.48;100.00;101424.84;4976392;28;20216;-46
2023/06/28 00:32:45;;;;;;;5.25;2.20;;;;;;;13.57;100.00;101419.09;4990359;28;20225;-43
2023/06/28 00:35:10;;;;;;;5.47;2.45;;;;;;;13.57;100.00;101424.47;4999546;28;20235;-44
2023/06/28 00:37:37;;;;;;;12.27;3.05;;;;;;;13.45;100.00;101428.56;4989471;28;20201;-44
2023/06/28 00:40:06;;;;;;;8.43;2.45;;;;;;;13.52;100.00;101426.50;4987430;28;20240;-45
2023/06/28 00:42:31;;;;;;;7.22;2.80;;;;;;;13.46;100.00;101426.72;5008063;28;20570;-45
2023/06/28 00:44:57;;;;;;;6.60;2.75;;;;;;;13.54;100.00;101427.31;4993394;28;20207;-45
2023/06/28 00:47:23;;;;;;;11.43;2.63;;;;;;;13.44;100.00;101420.53;4994052;28;20201;-46
2023/06/28 00:49:50;;;;;;;6.95;2.72;;;;;;;13.55;100.00;101426.34;5007056;28;20201;-45
2023/06/28 00:52:16;;;;;;;10.15;2.78;;;;;;;13.47;100.00;101421.28;4990994;28;20174;-46
2023/06/28 00:54:41;;;;;;;6.40;2.72;;;;;;;13.41;100.00;101428.75;4991797;28;20174;-46
2023/06/28 00:57:08;;;;;;;9.52;2.80;;;;;;;13.35;100.00;101430.72;4987497;28;20324;-46
2023/06/28 00:59:35;;;;;;;6.60;2.53;;;;;;;13.45;100.00;101427.69;5000631;28;20197;-47
2023/06/28 01:02:02;;;;;;;10.60;3.03;;;;;;;13.43;100.00;101421.47;4993895;28;20185;-45
2023/06/28 01:04:27;;;;;;;10.02;3.28;;;;;;;13.37;100.00;101428.84;4992048;28;20193;-45
2023/06/28 01:06:59;;;;;;;12.55;3.10;;;;;;;13.38;100.00;101427.94;4993163;28;20277;-44
2023/06/28 01:09:26;;;;;;;10.13;2.85;;;;;;;13.35;100.00;101433.41;4991440;28;20185;-45
2023/06/28 01:11:54;;;;;;;5.72;2.45;;;;;;;13.39;100.00;101431.50;4990458;28;20189;-45
2023/06/28 01:14:21;;;;;;;6.78;2.65;;;;;;;13.34;100.00;101430.81;4995468;28;20267;-44
2023/06/28 01:16:49;;;;;;;8.95;2.90;;;;;;;13.37;100.00;101436.91;4985177;28;20225;-45
2023/06/28 01:19:16;;;;;;;7.50;2.30;;;;;;;13.41;100.00;101437.69;5012711;28;20186;-44
2023/06/28 01:21:48;;;;;;;8.88;2.60;;;;;;;13.57;100.00;101438.81;5004237;28;20185;-45
2023/06/28 01:24:14;;;;;;;7.15;2.83;;;;;;;13.46;100.00;101440.19;4989365;28;20221;-45
2023/06/28 01:26:40;;;;;;;7.68;2.47;;;;;;;13.26;100.00;101439.13;4992677;28;20583;-45
2023/06/28 01:29:07;;;;;;;4.53;2.35;;;;;;;13.42;100.00;101438.56;4991879;28;20182;-45
2023/06/28 01:31:34;;;;;;;7.65;2.80;;;;;;;13.39;100.00;101439.56;4992089;28;20253;-45
2023/06/28 01:34:00;;;;;;;8.73;2.75;;;;;;;13.30;100.00;101448.88;5009162;28;20201;-46
2023/06/28 01:36:27;;;;;;;8.13;2.92;;;;;;;13.17;100.00;101434.13;4992331;28;20209;-46
2023/06/28 01:38:54;;;;;;;8.60;2.65;;;;;;;13.13;100.00;101437.88;4989473;28;20185;-47
2023/06/28 01:41:20;;;;;;;7.55;2.70;;;;;;;13.11;100.00;101439.75;4995370;28;20177;-45
2023/06/28 01:43:46;;;;;;;6.50;2.55;;;;;;;13.19;100.00;101441.19;4993937;28;20229;-45
2023/06/28 01:46:12;;;;;;;5.75;2.58;;;;;;;13.12;100.00;101439.69;4985693;28;20731;-45
2023/06/28 01:48:37;;;;;;;7.18;2.92;;;;;;;13.09;100.00;101439.78;4988829;28;20182;-45
2023/06/28 01:51:03;;;;;;;6.43;3.03;;;;;;;13.18;100.00;101441.25;4993198;28;20204;-46
2023/06/28 01:53:29;;;;;;;5.13;2.80;;;;;;;13.17;100.00;101443.06;4987389;28;20236;-45
2023/06/28 01:55:55;;;;;;;8.50;2.80;;;;;;;12.92;100.00;101445.84;4992205;28;20683;-45
2023/06/28 01:58:20;;;;;;;6.53;2.67;;;;;;;13.04;100.00;101444.47;4992274;28;20243;-44
2023/06/28 02:00:46;;;;;;;12.18;3.00;;;;;;;13.10;100.00;101444.25;4987031;28;20276;-44
2023/06/28 02:03:13;;;;;;;6.68;2.92;;;;;;;13.13;100.00;101441.44;5010615;28;20602;-45
2023/06/28 02:05:40;;;;;;;8.90;2.90;;;;;;;13.07;100.00;101449.72;4987665;28;20236;-46
2023/06/28 02:08:06;;;;;;;8.60;2.70;;;;;;;13.11;100.00;101447.81;4987787;28;20262;-45
2023/06/28 02:10:31;;;;;;;8.25;2.85;;;;;;;12.99;100.00;101446.50;4987650;28;20264;-44
2023/06/28 02:12:56;;;;;;;5.90;2.80;;;;;;;13.04;100.00;101435.53;4984106;28;20315;-46
2023/06/28 02:15:22;;;;;;;7.40;3.05;;;;;;;12.85;100.00;101451.50;4987251;28;20217;-44
2023/06/28 02:17:48;;;;;;;8.90;3.10;;;;;;;12.90;100.00;101438.75;4988489;28;20182;-45
2023/06/28 02:20:14;;;;;;;9.20;3.17;;;;;;;12.89;100.00;101439.69;5003163;28;20276;-46
2023/06/28 02:22:40;;;;;;;7.68;3.03;;;;;;;12.88;100.00;101444.22;4988116;28;20227;-45
2023/06/28 02:25:06;;;;;;;9.20;3.08;;;;;;;12.91;100.00;101437.81;4992726;28;20711;-46
2023/06/28 02:27:32;;;;;;;7.95;2.97;;;;;;;12.94;100.00;101451.16;4992399;28;20196;-45
2023/06/28 02:29:58;;;;;;;9.27;2.70;;;;;;;12.95;100.00;101447.53;4986336;28;20186;-45
2023/06/28 02:32:30;;;;;;;8.70;3.08;;;;;;;13.04;100.00;101446.31;4989776;28;20644;-44
2023/06/28 02:34:57;;;;;;;8.73;3.13;;;;;;;12.92;100.00;101431.50;4990819;28;20601;-45
2023/06/28 02:37:23;;;;;;;6.10;3.00;;;;;;;13.01;100.00;101432.94;4989062;28;20185;-44
2023/06/28 02:39:49;;;;;;;8.02;2.97;;;;;;;13.06;100.00;101442.63;4991220;28;20177;-45
2023/06/28 02:42:15;;;;;;;12.25;3.20;;;;;;;13.04;100.00;101444.47;4988873;28;20223;-47
2023/06/28 02:44:41;;;;;;;11.02;2.92;;;;;;;13.18;100.00;101436.78;4988086;28;20188;-46
2023/06/28 02:47:07;;;;;;;5.75;3.00;;;;;;;13.18;100.00;101441.25;4987646;28;20185;-45
2023/06/28 02:49:33;;;;;;;6.00;2.95;;;;;;;13.07;100.00;101444.34;4987509;28;20185;-44
2023/06/28 02:51:58;;;;;;;8.85;3.10;;;;;;;13.08;100.00;101438.06;4988065;28;20600;-44
2023/06/28 02:54:24;;;;;;;6.93;2.40;;;;;;;13.04;100.00;101438.22;5007587;28;20209;-46
2023/06/28 02:56:49;;;;;;;7.60;2.88;;;;;;;13.04;100.00;101447.19;4987334;28;20202;-45
2023/06/28 02:59:21;;;;;;;7.43;2.40;;;;;;;13.16;100.00;101449.41;4989735;28;20259;-45
2023/06/28 03:01:49;;;;;;;8.50;2.58;;;;;;;13.04;100.00;101457.06;4987778;28;20663;-46
2023/06/28 03:04:16;;;;;;;8.63;2.88;;;;;;;12.98;100.00;101456.34;4990547;28;20205;-45
2023/06/28 03:06:47;;;;;;;8.90;2.88;;;;;;;13.02;100.00;101453.56;4990442;28;20193;-46
2023/06/28 03:09:13;;;;;;;8.27;3.08;;;;;;;13.01;100.00;101454.47;4985740;28;20185;-45
2023/06/28 03:11:38;;;;;;;6.70;3.33;;;;;;;12.98;100.00;101442.03;4990201;28;20614;-45
2023/06/28 03:14:04;;;;;;;7.60;2.92;;;;;;;13.07;100.00;101446.16;4993967;28;20230;-44
2023/06/28 03:16:32;;;;;;;6.35;2.70;;;;;;;13.05;100.00;101451.59;5011227;28;20324;-45
2023/06/28 03:18:57;;;;;;;7.90;2.75;;;;;;;13.03;100.00;101453.50;5008377;28;20597;-45
2023/06/28 03:21:23;;;;;;;8.30;3.17;;;;;;;13.03;100.00;101448.13;5008090;28;20181;-45
2023/06/28 03:23:49;;;;;;;6.53;2.85;;;;;;;13.03;100.00;101448.13;5007393;28;20600;-46
2023/06/28 03:26:15;;;;;;;11.02;3.30;;;;;;;13.06;100.00;101448.00;5008796;22;20362;-48
2023/06/28 03:28:40;;;;;;;14.82;3.90;;;;;;;13.01;100.00;101447.31;4969153;28;20218;-47
2023/06/28 03:31:06;;;;;;;8.27;3.00;;;;;;;13.03;100.00;101448.13;4974094;28;20182;-48
2023/06/28 03:33:32;;;;;;;9.35;2.90;;;;;;;12.99;100.00;101452.75;4972646;28;20710;-48
2023/06/28 03:35:57;;;;;;;6.68;3.08;;;;;;;13.02;100.00;101448.19;4982308;28;20730;-49
2023/06/28 03:38:23;;;;;;;7.43;3.05;;;;;;;13.00;100.00;101432.09;4956299;28;20186;-48
2023/06/28 03:40:48;;;;;;;10.07;3.20;;;;;;;12.99;100.00;101436.59;4966975;28;20229;-48
2023/06/28 03:43:14;;;;;;;10.98;3.22;;;;;;;12.99;100.00;101446.50;4958127;28;20197;-48
2023/06/28 03:45:40;;;;;;;8.02;2.78;;;;;;;12.97;100.00;101445.66;4971482;28;20183;-48
2023/06/28 03:48:06;;;;;;;11.25;3.08;;;;;;;12.97;100.00;101443.84;4960680;28;20190;-50
2023/06/28 03:50:32;;;;;;;10.75;3.33;;;;;;;13.08;100.00;101446.13;4973625;28;20580;-46
2023/06/28 03:52:57;;;;;;;9.73;3.17;;;;;;;13.15;100.00;101446.75;4978101;28;20197;-48
2023/06/28 03:55:23;;;;;;;6.88;3.05;;;;;;;13.23;100.00;101443.75;4964631;28;20207;-48
2023/06/28 03:57:49;;;;;;;8.20;2.85;;;;;;;13.25;100.00;101441.88;4970286;28;20213;-45
2023/06/28 04:00:15;;;;;;;11.32;3.10;;;;;;;13.22;100.00;101439.31;4973520;28;20192;-48
2023/06/28 04:02:44;;;;;;;6.28;2.50;;;;;;;13.16;100.00;101433.25;4968516;28;20209;-47
2023/06/28 04:05:10;;;;;;;12.00;3.40;;;;;;;13.19;100.00;101441.19;4973133;28;20723;-48
2023/06/28 04:07:35;;;;;;;7.13;3.00;;;;;;;13.28;100.00;101442.69;4965910;28;20239;-48
2023/06/28 04:10:02;;;;;;;9.77;3.17;;;;;;;13.32;100.00;101432.69;4977972;28;20218;-50
2023/06/28 04:12:28;;;;;;;6.03;3.10;;;;;;;13.40;100.00;101449.38;4970514;28;20225;-47
2023/06/28 04:14:53;;;;;;;10.10;3.22;;;;;;;13.43;100.00;101443.88;4972467;28;20666;-47
2023/06/28 04:17:19;;;;;;;12.57;3.20;;;;;;;13.49;100.00;101446.34;4974206;28;20222;-49
2023/06/28 04:19:44;;;;;;;5.78;2.90;;;;;;;13.53;100.00;101447.06;4977244;28;20187;-47
2023/06/28 04:22:10;;;;;;;9.85;2.80;;;;;;;13.58;100.00;101445.97;4973161;28;20178;-46
2023/06/28 04:24:35;;;;;;;9.52;3.42;;;;;;;13.70;100.00;101441.00;4965364;28;20186;-48
2023/06/28 04:27:01;;;;;;;10.88;3.08;;;;;;;13.70;100.00;101446.38;4964708;28;20190;-48
2023/06/28 04:29:27;;;;;;;9.82;3.30;;;;;;;13.76;100.00;101436.22;4975553;28;20186;-47
2023/06/28 04:31:53;;;;;;;6.93;3.20;;;;;;;13.77;100.00;101442.50;4967187;28;20221;-45
2023/06/28 04:34:19;;;;;;;9.63;3.15;;;;;;;13.78;100.00;101450.50;4967429;28;20641;-46
2023/06/28 04:36:46;;;;;;;9.48;3.40;;;;;;;13.83;100.00;101444.94;4971665;28;20267;-47
2023/06/28 04:39:12;;;;;;;11.60;3.35;;;;;;;13.86;100.00;101442.09;4978963;28;20210;-44
2023/06/28 04:41:37;;;;;;;11.57;3.63;;;;;;;13.93;100.00;101445.44;4976584;28;20197;-45
2023/06/28 04:44:03;;;;;;;8.00;2.92;;;;;;;13.91;100.00;101444.63;4963057;28;20570;-46
2023/06/28 04:46:29;;;;;;;10.05;3.00;;;;;;;13.97;100.00;101439.84;4967443;28;20179;-46
2023/06/28 04:48:57;;;;;;;8.02;3.00;;;;;;;14.04;100.00;101445.84;4974432;28;20183;-45
2023/06/28 04:51:23;;;;;;;12.05;2.88;;;;;;;14.00;100.00;101455.88;4968976;28;20359;-43
2023/06/28 04:53:49;;;;;;;7.90;2.92;;;;;;;14.12;100.00;101450.91;4970992;28;20751;-45
2023/06/28 04:56:15;;;;;;;9.40;2.50;;;;;;;14.24;100.00;101450.38;4964893;28;20202;-46
2023/06/28 04:58:41;;;;;;;5.28;2.30;;;;;;;14.33;100.00;101446.41;4976853;28;20656;-43
2023/06/28 05:01:08;;;;;;;5.63;2.10;;;;;;;14.48;100.00;101428.69;4973955;28;20262;-44
2023/06/28 05:03:40;;;;;;;11.40;3.15;;;;;;;14.56;100.00;101430.13;4967070;28;20583;-45
2023/06/28 05:06:09;;;;;;;9.40;2.88;;;;;;;14.56;100.00;101427.41;4972440;28;20318;-44
2023/06/28 05:08:35;;;;;;;8.18;2.47;;;;;;;14.67;100.00;101432.31;4964325;28;20190;-46
2023/06/28 05:11:02;;;;;;;9.13;2.78;;;;;;;14.65;100.00;101436.00;4963184;28;20181;-45
2023/06/28 05:13:27;;;;;;;8.85;2.42;;;;;;;14.71;100.00;101444.69;4971884;28;20260;-44
2023/06/28 05:15:53;;;;;;;13.25;2.70;;;;;;;14.71;100.00;101443.81;4974013;28;20960;-47
2023/06/28 05:18:19;;;;;;;10.98;2.55;;;;;;;14.70;100.00;101439.41;4974354;28;20257;-44
2023/06/28 05:20:45;;;;;;;9.93;2.53;;;;;;;14.84;100.00;101431.53;4965117;28;20212;-44
2023/06/28 05:23:15;;;;;;;11.40;2.65;;;;;;;14.96;100.00;101432.78;4969596;28;20210;-45
2023/06/28 05:25:42;;;;;;;8.27;2.30;;;;;;;14.93;100.00;101438.31;4968889;28;20272;-45
2023/06/28 05:28:10;;;;;;;10.80;2.58;;;;;;;15.01;100.00;101436.13;4972696;28;20668;-45
2023/06/28 05:30:36;;;;;;;10.88;2.65;;;;;;;15.06;100.00;101444.00;4971044;28;20241;-45
2023/06/28 05:33:02;;;;;;;6.95;2.03;;;;;;;15.19;100.00;101440.66;4969325;28;20216;-44
2023/06/28 05:35:33;;;;;;;9.18;2.88;;;;;;;15.21;100.00;101444.16;4971280;28;20684;-47
2023/06/28 05:37:59;;;;;;;10.02;3.10;;;;;;;15.29;100.00;101434.84;4969536;28;20186;-46
2023/06/28 05:40:29;;;;;;;6.30;2.60;;;;;;;15.37;100.00;101444.31;4962656;28;20189;-45
2023/06/28 05:42:57;;;;;;;15.02;3.20;;;;;;;15.17;100.00;101436.28;4967827;28;20307;-45
2023/06/28 05:45:23;;;;;;;10.73;2.67;;;;;;;15.31;100.00;101438.34;4971070;28;20182;-46
2023/06/28 05:47:50;;;;;;;8.35;2.63;;;;;;;15.39;100.00;101441.53;4966639;28;20182;-45
2023/06/28 05:50:16;;;;;;;11.35;3.08;;;;;;;15.68;100.00;101436.50;4973899;28;20270;-46
2023/06/28 05:52:43;;;;;;;10.02;2.60;;;;;;;15.64;100.00;101436.66;4974586;28;20214;-46
2023/06/28 05:55:09;;;;;;;6.57;2.40;;;;;;;15.90;100.00;101445.34;4976861;28;20182;-43
2023/06/28 05:57:35;;;;;;;8.43;2.38;;;;;;;15.85;100.00;101450.97;4974352;28;20266;-44
2023/06/28 06:00:02;;;;;;;7.50;2.65;;;;;;;15.99;100.00;101442.16;4971937;28;20186;-44
2023/06/28 06:02:30;;;;;;;9.73;2.53;;;;;;;15.94;100.00;101433.41;4967579;28;20308;-44
2023/06/28 06:04:57;;;;;;;9.50;1.92;;;;;;;16.12;100.00;101441.53;4963883;28;20182;-45
2023/06/28 06:07:23;;;;;;;9.15;2.35;;;;;;;16.04;100.00;101440.09;4966655;28;20193;-46
2023/06/28 06:09:49;;;;;;;9.02;2.60;;;;;;;16.01;100.00;101437.56;4964570;28;20194;-44
2023/06/28 06:12:14;;;;;;;9.95;2.53;;;;;;;16.10;100.00;101446.16;4964750;28;20815;-45
2023/06/28 06:14:40;;;;;;;9.18;2.10;;;;;;;16.35;100.00;101443.91;4972054;28;20567;-45
2023/06/28 06:17:05;;;;;;;7.60;2.22;;;;;;;16.24;100.00;101436.34;4959363;28;20217;-43
2023/06/28 06:19:31;;;;;;;12.07;3.05;;;;;;;16.23;100.00;101447.25;4971603;28;20187;-46
2023/06/28 06:21:56;;;;;;;10.68;2.95;;;;;;;16.44;100.00;101454.25;4973006;28;20210;-45
2023/06/28 06:24:22;;;;;;;9.90;2.25;;;;;;;16.48;100.00;101463.06;4969268;28;20213;-45
2023/06/28 06:26:48;;;;;;;8.20;2.40;;;;;;;16.58;99.77;101449.94;4962385;28;20563;-47
2023/06/28 06:29:13;;;;;;;6.70;2.58;;;;;;;16.68;98.59;101453.88;4970386;28;20183;-47
2023/06/28 06:31:38;;;;;;;11.57;2.15;;;;;;;16.63;97.64;101446.00;4970290;28;20190;-46
2023/06/28 06:34:04;;;;;;;8.43;2.40;;;;;;;16.75;96.65;101455.31;4968270;28;20207;-45
2023/06/28 06:36:30;;;;;;;6.50;2.20;;;;;;;16.90;95.40;101450.91;4961071;28;20637;-47
2023/06/28 06:38:57;;;;;;;7.60;2.55;;;;;;;16.52;94.85;101450.25;4969939;28;20200;-44
2023/06/28 06:41:23;;;;;;;7.28;2.05;;;;;;;16.98;94.16;101454.06;4971978;28;20681;-46
2023/06/28 06:43:49;;;;;;;10.70;4.28;;;;;;;16.89;93.43;101443.75;4969609;28;20210;-47
2023/06/28 06:46:16;;;;;;;10.73;5.65;;;;;;;17.18;92.36;101457.50;4949312;28;20187;-45
2023/06/28 06:48:42;;;;;;;8.63;3.45;;;;;;;17.53;90.61;101458.22;4972773;28;20213;-44
2023/06/28 06:51:07;;;;;;;12.65;2.78;;;;;;;17.66;89.47;101445.69;4966171;28;20198;-46
2023/06/28 06:53:33;;;;;;;9.75;2.25;;;;;;;17.90;87.74;101448.84;4964465;28;20234;-43
2023/06/28 06:55:59;;;;;;;11.05;2.17;;;;;;;17.95;86.51;101456.72;4960281;28;20218;-45
2023/06/28 06:58:25;;;;;;;8.32;2.20;;;;;;;18.22;85.53;101454.19;4974289;28;20181;-44
2023/06/28 07:00:52;;;;;;;8.70;1.90;;;;;;;18.61;83.29;101449.16;4970445;28;20217;-47
2023/06/28 07:03:20;;;;;;;12.45;2.10;;;;;;;18.78;81.14;101435.41;4971098;28;20210;-48
2023/06/28 07:05:46;;;;;;;7.85;1.90;;;;;;;19.54;78.69;101435.00;4974368;28;20188;-47
2023/06/28 07:08:11;;;;;;;6.60;2.10;;;;;;;19.09;77.38;101422.59;4978463;28;20192;-47
2023/06/28 07:10:37;;;;;;;9.18;1.80;;;;;;;19.22;76.70;101434.41;4975893;28;20686;-46
2023/06/28 07:13:03;;;;;;;8.57;2.10;;;;;;;19.55;76.48;101433.19;4971797;28;20202;-47
2023/06/28 07:15:28;;;;;;;7.75;2.40;;;;;;;19.35;74.31;101431.78;4958364;28;20221;-47
2023/06/28 07:17:54;;;;;;;9.00;2.35;;;;;;;19.29;73.71;101429.47;4969843;28;20240;-45
2023/06/28 07:20:20;;;;;;;8.40;2.00;;;;;;;18.92;74.67;101435.41;4963911;28;20194;-45
2023/06/28 07:22:46;;;;;;;7.07;2.20;;;;;;;19.33;75.47;101452.75;4960006;28;20707;-46
2023/06/28 07:25:11;;;;;;;7.55;1.83;;;;;;;18.99;74.72;101433.16;4963346;28;20189;-46
2023/06/28 07:27:37;;;;;;;6.28;2.00;;;;;;;19.25;73.65;101439.63;4978204;28;20608;-47
2023/06/28 07:30:03;;;;;;;6.88;2.17;;;;;;;19.44;72.66;101428.44;4967530;28;20305;-44
2023/06/28 07:32:29;;;;;;;7.97;1.90;;;;;;;19.55;71.09;101430.47;4957589;28;20210;-45
2023/06/28 07:34:55;;;;;;;4.35;1.85;;;;;;;20.42;70.48;101428.19;4970017;28;20238;-47
2023/06/28 07:37:21;;;;;;;8.13;1.88;;;;;;;20.78;67.85;101412.00;4971466;28;20209;-46
2023/06/28 07:39:47;;;;;;;8.40;2.10;;;;;;;20.93;67.46;101422.78;4963749;28;20348;-46
2023/06/28 07:42:13;;;;;;;5.53;1.50;;;;;;;20.61;67.28;101419.63;4963185;28;20179;-45
2023/06/28 07:44:39;;;;;;;8.13;2.03;;;;;;;20.22;66.83;101421.44;4973925;28;20674;-44
2023/06/28 07:47:05;;;;;;;8.20;1.90;;;;;;;19.53;67.93;101422.41;4968070;28;20174;-45
2023/06/28 07:49:30;;;;;;;7.18;1.73;;;;;;;20.30;66.78;101400.88;4969610;28;20653;-44
2023/06/28 07:51:56;;;;;;;4.90;1.67;;;;;;;20.15;66.27;101416.41;4963762;28;20229;-44
2023/06/28 07:54:23;;;;;;;4.63;1.55;;;;;;;20.11;66.54;101412.16;4968303;28;20221;-46
2023/06/28 07:56:49;;;;;;;7.13;1.80;;;;;;;21.03;67.03;101420.25;4970892;28;20421;-45
2023/06/28 07:59:15;;;;;;;5.00;1.63;;;;;;;21.24;64.20;101402.31;4969883;28;20265;-45
2023/06/28 08:01:41;;;;;;;6.82;1.70;;;;;;;20.84;63.96;101402.53;4972015;28;20212;-44
2023/06/28 08:04:06;;;;;;;6.55;1.70;;;;;;;20.68;63.66;101402.75;4960471;28;20201;-43
2023/06/28 08:06:32;;;;;;;6.93;2.03;;;;;;;21.04;63.37;101397.47;4972934;28;20188;-44
2023/06/28 08:08:58;;;;;;;3.75;1.27;;;;;;;20.42;63.78;101399.13;4968828;28;20219;-46
2023/06/28 08:11:23;;;;;;;7.60;1.63;;;;;;;20.38;63.51;101394.91;4967269;28;20252;-47
2023/06/28 08:13:50;;;;;;;4.20;1.67;;;;;;;20.85;62.99;101390.63;4977389;28;20242;-47
2023/06/28 08:16:17;;;;;;;6.93;1.65;;;;;;;19.96;62.50;101389.63;4972958;28;20228;-49
2023/06/28 08:18:43;;;;;;;5.88;1.38;;;;;;;20.25;63.13;101394.03;4969612;28;20193;-47
2023/06/28 08:21:09;;;;;;;8.63;1.90;;;;;;;20.80;61.81;101384.66;4977111;28;20186;-47
2023/06/28 08:23:34;;;;;;;4.60;1.60;;;;;;;20.83;61.39;101378.13;4969313;28;20212;-47
2023/06/28 08:26:01;;;;;;;4.50;1.30;;;;;;;20.87;61.19;101382.38;4972022;28;20278;-45
2023/06/28 08:28:26;;;;;;;4.32;1.52;;;;;;;21.73;59.63;101379.56;4966800;28;20328;-45
2023/06/28 08:30:52;;;;;;;3.95;1.25;;;;;;;21.35;58.85;101366.09;4963806;28;20662;-48
2023/06/28 08:33:18;;;;;;;4.43;1.27;;;;;;;21.67;59.86;101384.63;4966824;28;20211;-48
2023/06/28 08:35:43;;;;;;;7.18;1.30;;;;;;;21.80;59.21;101383.56;4972375;28;20197;-48
2023/06/28 08:38:09;;;;;;;4.10;1.80;;;;;;;21.79;60.33;101397.31;4958322;28;20563;-46
2023/06/28 08:40:35;;;;;;;4.82;1.30;;;;;;;21.48;60.05;101393.34;4967435;28;20860;-47
2023/06/28 08:43:01;;;;;;;7.07;1.70;;;;;;;21.48;60.06;101391.47;4971031;28;20202;-47
2023/06/28 08:45:30;;;;;;;6.63;1.65;;;;;;;22.20;57.58;101363.22;4973765;28;20192;-50
2023/06/28 08:47:56;;;;;;;5.85;1.48;;;;;;;21.61;58.37;101369.59;4960426;28;20190;-45
2023/06/28 08:50:22;;;;;;;5.97;1.58;;;;;;;22.40;56.88;101353.47;4971819;28;20297;-47
2023/06/28 08:52:50;;;;;;;3.58;1.30;;;;;;;22.59;56.36;101359.22;4968368;28;20767;-47
2023/06/28 08:55:16;;;;;;;5.53;1.58;;;;;;;22.45;55.61;101340.31;4965521;28;20773;-47
2023/06/28 08:57:42;;;;;;;4.82;1.40;;;;;;;22.28;55.34;101338.97;4966935;28;20194;-46
2023/06/28 09:00:12;;;;;;;3.40;1.25;;;;;;;22.37;55.71;101345.56;4970800;28;20264;-49
2023/06/28 09:02:43;;;;;;;3.78;1.35;;;;;;;23.26;55.47;101357.41;4971015;28;20207;-45
2023/06/28 09:05:10;;;;;;;3.00;1.50;;;;;;;22.24;55.16;101333.84;4965508;28;20416;-48
2023/06/28 09:07:39;;;;;;;2.63;1.20;;;;;;;22.37;55.37;101343.69;4963601;28;20280;-47
2023/06/28 09:10:08;;;;;;;8.00;1.50;;;;;;;21.77;55.42;101334.69;4977529;28;20193;-47
2023/06/28 09:12:35;;;;;;;11.80;2.00;;;;;;;22.35;55.32;101344.81;4973820;28;20295;-48
2023/06/28 09:15:01;;;;;;;2.30;1.30;;;;;;;22.65;54.69;101341.44;4969641;28;20257;-46
2023/06/28 09:17:26;;;;;;;3.60;1.20;;;;;;;22.67;54.39;101338.59;4975651;28;20241;-46
2023/06/28 09:19:52;;;;;;;5.75;1.45;;;;;;;22.49;55.70;101344.53;4962616;28;20667;-46
2023/06/28 09:22:18;;;;;;;5.05;1.48;;;;;;;22.40;55.52;101345.28;4968946;28;20180;-47
2023/06/28 09:24:48;;;;;;;4.60;1.50;;;;;;;21.73;57.08;101357.72;4960467;28;20206;-47
2023/06/28 09:27:15;;;;;;;4.38;1.45;;;;;;;21.68;56.73;101367.28;4983640;22;20221;-50
2023/06/28 09:29:41;;;;;;;1.58;1.30;;;;;;;22.50;56.66;101362.69;4967490;28;20276;-47
2023/06/28 09:32:07;;;;;;;5.80;1.75;;;;;;;22.40;55.78;101353.47;4966775;28;20258;-47
2023/06/28 09:34:35;;;;;;;3.30;1.25;;;;;;;20.72;56.50;101357.09;4971313;28;20236;-49
2023/06/28 09:37:00;;;;;;;5.72;1.60;;;;;;;20.82;57.81;101370.94;4979230;28;20213;-48
2023/06/28 09:39:26;;;;;;;3.92;1.10;;;;;;;21.77;56.51;101369.28;4973448;28;20327;-48
2023/06/28 09:41:53;;;;;;;7.22;1.70;;;;;;;22.42;55.43;101348.78;4967953;28;20687;-47
2023/06/28 09:44:31;;;;;;;2.95;1.30;;;;;;;22.24;54.20;101332.00;4971203;28;20622;-48
2023/06/28 09:47:02;;;;;;;4.97;1.55;;;;;;;21.95;55.81;101353.34;4971795;28;20533;-47
2023/06/28 09:49:27;;;;;;;4.53;1.35;;;;;;;22.43;55.51;101353.22;4977918;28;20177;-47
2023/06/28 09:51:58;;;;;;;3.70;1.38;;;;;;;23.30;54.14;101345.22;4972714;28;20192;-47
2023/06/28 09:54:44;;;;;;;2.30;1.38;;;;;;;23.01;52.78;101332.13;4968711;28;20624;-50
2023/06/28 09:57:10;;;;;;;4.63;1.23;;;;;;;23.90;51.36;101320.13;4974904;28;20190;-49
2023/06/28 09:59:36;;;;;;;3.70;1.10;;;;;;;23.93;51.37;101323.47;4972648;28;20267;-46
2023/06/28 10:02:07;;;;;;;3.83;1.20;;;;;;;24.10;50.24;101308.31;4973730;28;20552;-48
2023/06/28 10:04:37;;;;;;;3.20;1.40;;;;;;;22.82;50.64;101304.56;4974217;28;20216;-48
2023/06/28 10:07:04;;;;;;;4.47;1.15;;;;;;;22.68;53.21;101340.34;4970937;28;20186;-47
2023/06/28 10:09:35;;;;;;;4.45;1.10;;;;;;;22.48;53.67;101344.66;4974523;28;20185;-47
2023/06/28 10:12:23;;;;;;;2.75;1.33;;;;;;;22.98;52.49;101336.94;4971501;28;20189;-46
2023/06/28 10:14:55;;;;;;;2.92;1.20;;;;;;;23.07;52.39;101336.22;4961580;28;20190;-45
2023/06/28 10:17:21;;;;;;;3.45;1.20;;;;;;;23.69;51.49;101328.31;4973000;28;20644;-47
2023/06/28 10:19:49;;;;;;;3.38;1.42;;;;;;;23.45;50.68;101315.72;4976674;28;20665;-46
2023/06/28 10:22:15;;;;;;;3.22;1.30;;;;;;;24.07;49.85;101308.56;4970335;28;20217;-46
2023/06/28 10:24:42;;;;;;;3.25;1.40;;;;;;;24.61;49.51;101301.09;4973304;28;20268;-47
2023/06/28 10:27:08;;;;;;;4.63;1.50;;;;;;;23.13;49.83;101289.22;4971145;28;20346;-47
2023/06/28 10:29:35;;;;;;;6.05;1.60;;;;;;;22.99;51.32;101311.34;4970807;28;20296;-49
2023/06/28 10:32:01;;;;;;;2.65;1.30;;;;;;;22.57;52.80;101331.16;4971890;28;20185;-47
2023/06/28 10:34:28;;;;;;;2.40;1.20;;;;;;;22.38;53.20;101330.91;4978871;28;20703;-48
2023/06/28 10:36:56;;;;;;;3.63;1.30;;;;;;;22.76;51.10;101316.88;4970348;28;20201;-47
2023/06/28 10:39:22;;;;;;;4.15;1.23;;;;;;;22.77;51.44;101313.13;4971064;28;20185;-45
2023/06/28 10:41:55;;;;;;;2.67;1.40;;;;;;;23.15;50.64;101306.38;4974477;28;20644;-47
2023/06/28 10:44:20;;;;;;;4.15;1.30;;;;;;;23.40;50.18;101293.38;4969843;28;20249;-47
2023/06/28 10:46:46;;;;;;;2.53;1.20;;;;;;;24.08;49.27;101293.91;4972993;28;20177;-47
2023/06/28 10:49:16;;;;;;;4.75;1.50;;;;;;;23.67;49.07;101281.91;4971203;28;20186;-46
2023/06/28 10:51:46;;;;;;;2.25;1.10;;;;;;;23.74;49.47;101296.78;4973031;28;20648;-46
2023/06/28 10:54:13;;;;;;;3.70;1.52;;;;;;;22.76;51.38;101305.06;4974421;28;20194;-47
2023/06/28 10:56:49;;;;;;;5.60;1.80;;;;;;;22.89;52.60;101321.31;4973168;28;20212;-47
2023/06/28 10:59:16;;;;;;;2.80;1.45;;;;;;;22.86;51.81;101310.63;4982845;28;20189;-48
2023/06/28 11:01:53;;;;;;;4.15;1.50;;;;;;;23.58;51.70;101330.09;4971404;28;20182;-47
2023/06/28 11:04:21;;;;;;;3.15;1.42;;;;;;;23.57;51.41;101313.78;4972142;28;20247;-47
2023/06/28 11:06:46;;;;;;;2.72;1.40;;;;;;;23.51;50.13;101296.06;4973168;28;20194;-46
2023/06/28 11:09:14;;;;;;;3.58;1.38;;;;;;;23.92;50.17;101302.59;4978206;28;20200;-48
2023/06/28 11:11:57;;;;;;;2.30;1.13;;;;;;;24.07;49.69;101294.88;4973669;28;20220;-46
2023/06/28 11:14:27;;;;;;;2.22;1.25;;;;;;;24.42;47.75;101267.13;4971915;28;20267;-47
2023/06/28 11:17:11;;;;;;;4.05;1.23;;;;;;;24.51;46.98;101256.34;4973492;28;20201;-46